createdAt,value
2018-06-24T00:00:09.781Z,73.87
2018-06-24T00:02:37.862Z,73.29
2018-06-24T00:05:05.996Z,73.53
2018-06-24T00:07:34.098Z,72.85
2018-06-24T00:10:02.192Z,73.34
2018-06-24T00:12:30.280Z,73.40
2018-06-24T00:14:58.306Z,73.53
2018-06-24T00:17:26.474Z,73.99
2018-06-24T00:19:54.633Z,74.83
2018-06-24T00:22:22.833Z,73.85
2018-06-24T00:24:51.066Z,74.25
2018-06-24T00:27:19.465Z,74.64
2018-06-24T00:29:47.762Z,74.62
2018-06-24T00:32:16.222Z,74.73
2018-06-24T00:34:44.995Z,75.12
2018-06-24T00:37:13.280Z,74.93
2018-06-24T00:39:41.513Z,74.89
2018-06-24T00:42:09.806Z,75.43
2018-06-24T00:44:37.861Z,75.32
2018-06-24T00:47:06.047Z,74.92
2018-06-24T00:49:34.771Z,75.49
2018-06-24T00:52:02.953Z,75.39
2018-06-24T00:54:31.050Z,76.30
2018-06-24T00:56:59.090Z,75.77
2018-06-24T00:59:44.072Z,76.42
2018-06-24T01:02:12.328Z,76.27
2018-06-24T01:04:40.381Z,76.88
2018-06-24T01:07:08.552Z,77.46
2018-06-24T01:09:37.034Z,77.47
2018-06-24T01:12:05.273Z,77.87
2018-06-24T01:14:33.347Z,77.08
2018-06-24T01:17:01.467Z,77.29
2018-06-24T01:19:29.575Z,78.49
2018-06-24T01:21:57.687Z,78.90
2018-06-24T01:24:25.782Z,78.97
2018-06-24T01:26:53.862Z,79.16
2018-06-24T01:29:21.900Z,78.95
2018-06-24T01:31:49.975Z,79.48
2018-06-24T01:34:18.029Z,82.07
2018-06-24T01:36:46.059Z,83.08
2018-06-24T01:39:14.144Z,83.73
2018-06-24T01:41:42.193Z,82.80
2018-06-24T01:44:10.245Z,84.62
2018-06-24T01:46:38.402Z,84.49
2018-06-24T01:49:06.468Z,85.40
2018-06-24T01:51:34.545Z,85.39
2018-06-24T01:54:02.614Z,86.19
2018-06-24T01:56:30.758Z,84.49
2018-06-24T01:58:58.931Z,84.43
2018-06-24T02:01:26.947Z,85.70
2018-06-24T02:03:55.787Z,85.09
2018-06-24T02:06:23.869Z,85.73
2018-06-24T02:08:51.969Z,86.43
2018-06-24T02:11:20.009Z,85.64
2018-06-24T02:13:48.026Z,85.89
2018-06-24T02:16:16.059Z,85.25
2018-06-24T02:18:44.168Z,84.20
2018-06-24T02:21:12.274Z,85.00
2018-06-24T02:23:40.337Z,85.83
2018-06-24T02:26:08.432Z,85.48
2018-06-24T02:28:36.762Z,85.14
2018-06-24T02:31:05.164Z,84.73
2018-06-24T02:33:33.252Z,85.24
2018-06-24T02:36:01.306Z,83.58
2018-06-24T02:38:29.523Z,84.06
2018-06-24T02:40:57.593Z,84.21
2018-06-24T02:43:25.720Z,83.90
2018-06-24T02:45:53.801Z,84.42
2018-06-24T02:48:21.873Z,83.52
2018-06-24T02:50:49.974Z,83.18
2018-06-24T02:53:18.019Z,83.98
2018-06-24T02:55:46.049Z,84.29
2018-06-24T02:58:14.107Z,84.39
2018-06-24T03:00:42.288Z,84.31
2018-06-24T03:03:10.311Z,82.98
2018-06-24T03:05:38.437Z,82.36
2018-06-24T03:08:06.570Z,81.37
2018-06-24T03:10:34.570Z,82.51
2018-06-24T03:13:03.197Z,82.65
2018-06-24T03:15:31.272Z,81.94
2018-06-24T03:17:59.317Z,83.08
2018-06-24T03:20:27.405Z,83.62
2018-06-24T03:22:55.457Z,83.10
2018-06-24T03:25:23.468Z,83.11
2018-06-24T03:27:51.517Z,83.31
2018-06-24T03:30:19.707Z,82.99
2018-06-24T03:32:47.782Z,83.96
2018-06-24T03:35:15.826Z,83.74
2018-06-24T03:37:43.980Z,83.64
2018-06-24T03:40:12.038Z,83.68
2018-06-24T03:42:46.983Z,83.89
2018-06-24T03:45:15.134Z,83.71
2018-06-24T03:47:43.269Z,84.39
2018-06-24T03:50:11.344Z,84.76
2018-06-24T03:52:39.506Z,84.91
2018-06-24T03:55:07.549Z,84.39
2018-06-24T03:57:35.583Z,84.19
2018-06-24T04:00:04.419Z,84.21
2018-06-24T04:02:33.185Z,83.22
2018-06-24T04:05:01.290Z,83.29
2018-06-24T04:07:29.364Z,83.10
2018-06-24T04:09:57.510Z,82.18
2018-06-24T04:12:25.577Z,81.74
2018-06-24T04:14:53.718Z,81.38
2018-06-24T04:17:21.956Z,79.59
2018-06-24T04:19:50.130Z,78.93
2018-06-24T04:22:18.327Z,79.34
2018-06-24T04:24:46.402Z,79.36
2018-06-24T04:27:14.593Z,78.61
2018-06-24T04:29:42.701Z,79.30
2018-06-24T04:32:10.876Z,78.30
2018-06-24T04:34:39.653Z,77.02
2018-06-24T04:37:07.778Z,78.16
2018-06-24T04:39:36.015Z,78.21
2018-06-24T04:42:04.170Z,77.92
2018-06-24T04:44:32.255Z,77.75
2018-06-24T04:47:00.431Z,78.04
2018-06-24T04:49:30.273Z,76.54
2018-06-24T04:51:59.129Z,76.48
2018-06-24T04:54:27.347Z,76.08
2018-06-24T04:56:55.560Z,76.17
2018-06-24T04:59:23.589Z,76.40
2018-06-24T05:01:51.696Z,74.79
2018-06-24T05:04:19.925Z,73.89
2018-06-24T05:06:48.109Z,73.50
2018-06-24T05:09:16.192Z,73.59
2018-06-24T05:11:45.075Z,73.11
2018-06-24T05:14:13.899Z,71.96
2018-06-24T05:16:42.114Z,72.05
2018-06-24T05:19:10.313Z,71.87
2018-06-24T05:21:38.409Z,70.16
2018-06-24T05:24:06.603Z,70.27
2018-06-24T05:26:34.682Z,71.78
2018-06-24T05:29:02.809Z,71.29
2018-06-24T05:31:31.652Z,70.98
2018-06-24T05:33:59.836Z,70.11
2018-06-24T05:36:28.096Z,69.11
2018-06-24T05:38:56.241Z,67.36
2018-06-24T05:41:24.349Z,66.54
2018-06-24T05:43:52.482Z,65.18
2018-06-24T05:46:20.739Z,64.51
2018-06-24T05:48:48.963Z,63.77
2018-06-24T05:51:17.235Z,60.59
2018-06-24T05:53:45.927Z,61.67
2018-06-24T05:56:14.124Z,61.79
2018-06-24T05:58:42.241Z,60.83
2018-06-24T06:01:10.381Z,61.05
2018-06-24T06:03:38.601Z,60.85
2018-06-24T06:06:06.797Z,60.89
2018-06-24T06:08:35.538Z,61.76
2018-06-24T06:11:04.141Z,62.29
2018-06-24T06:13:32.491Z,62.31
2018-06-24T06:16:00.768Z,60.69
2018-06-24T06:18:28.979Z,60.19
2018-06-24T06:20:57.227Z,59.64
2018-06-24T06:23:25.459Z,58.42
2018-06-24T06:25:53.758Z,57.57
2018-06-24T06:28:21.864Z,57.45
2018-06-24T06:30:49.981Z,57.10
2018-06-24T06:33:18.124Z,57.35
2018-06-24T06:35:46.274Z,57.79
2018-06-24T06:38:14.405Z,57.91
2018-06-24T06:40:42.607Z,57.39
2018-06-24T06:43:10.770Z,56.56
2018-06-24T06:45:39.887Z,55.57
2018-06-24T06:48:07.778Z,55.27
2018-06-24T06:50:36.042Z,53.40
2018-06-24T06:53:04.288Z,52.68
2018-06-24T06:55:32.507Z,51.71
2018-06-24T06:58:00.875Z,52.13
2018-06-24T07:00:29.304Z,53.11
2018-06-24T07:02:57.712Z,51.66
2018-06-24T07:05:25.981Z,53.31
2018-06-24T07:07:54.148Z,51.59
2018-06-24T07:10:22.413Z,52.32
2018-06-24T07:12:51.183Z,55.28
2018-06-24T07:15:19.334Z,58.99
2018-06-24T07:17:47.549Z,52.20
2018-06-24T07:20:15.680Z,53.81
2018-06-24T07:22:43.897Z,47.61
2018-06-24T07:25:12.081Z,48.74
2018-06-24T07:27:40.275Z,46.76
2018-06-24T07:30:08.907Z,45.45
2018-06-24T07:32:37.086Z,41.81
2018-06-24T07:35:05.341Z,46.37
2018-06-24T07:37:33.577Z,48.07
2018-06-24T07:40:01.752Z,46.57
2018-06-24T07:42:30.059Z,48.41
2018-06-24T07:44:58.355Z,49.72
2018-06-24T07:47:26.659Z,50.50
2018-06-24T07:49:54.884Z,51.97
2018-06-24T07:52:23.199Z,49.31
2018-06-24T07:54:51.492Z,42.62
2018-06-24T07:57:19.836Z,39.21
2018-06-24T07:59:47.974Z,36.97
2018-06-24T08:02:16.221Z,37.63
2018-06-24T08:04:44.380Z,37.22
2018-06-24T08:07:12.734Z,34.58
2018-06-24T08:09:41.130Z,40.16
2018-06-24T08:12:09.324Z,39.36
2018-06-24T08:14:37.843Z,39.56
2018-06-24T08:17:06.073Z,36.97
2018-06-24T08:19:34.475Z,34.65
2018-06-24T08:22:02.798Z,33.91
2018-06-24T08:24:31.127Z,34.90
2018-06-24T08:26:59.425Z,40.25
2018-06-24T08:29:27.676Z,34.05
2018-06-24T08:31:56.054Z,33.94
2018-06-24T08:34:24.366Z,33.88
2018-06-24T08:36:52.580Z,32.22
2018-06-24T08:39:20.841Z,29.87
2018-06-24T08:41:49.125Z,31.04
2018-06-24T08:44:17.511Z,31.36
2018-06-24T08:46:45.697Z,32.91
2018-06-24T08:49:13.976Z,31.12
2018-06-24T08:51:42.970Z,32.75
2018-06-24T08:54:11.237Z,34.37
2018-06-24T08:56:39.446Z,35.61
2018-06-24T08:59:08.363Z,37.99
2018-06-24T09:01:36.735Z,38.66
2018-06-24T09:04:05.019Z,34.40
2018-06-24T09:06:33.299Z,30.38
2018-06-24T09:09:01.741Z,34.01
2018-06-24T09:11:29.992Z,31.83
2018-06-24T09:13:58.355Z,32.67
2018-06-24T09:16:27.362Z,34.85
2018-06-24T09:18:56.232Z,34.02
2018-06-24T09:21:24.533Z,36.87
2018-06-24T09:23:52.862Z,37.43
2018-06-24T09:26:21.184Z,38.39
2018-06-24T09:28:49.475Z,36.76
2018-06-24T09:31:17.625Z,35.09
2018-06-24T09:33:45.917Z,32.45
2018-06-24T09:36:14.118Z,32.60
2018-06-24T09:38:42.428Z,31.48
2018-06-24T09:41:10.740Z,31.97
2018-06-24T09:43:39.054Z,30.70
2018-06-24T09:46:08.027Z,30.29
2018-06-24T09:48:36.279Z,27.06
2018-06-24T09:51:04.407Z,28.10
2018-06-24T09:53:32.576Z,32.27
2018-06-24T09:56:00.817Z,29.95
2018-06-24T09:58:29.119Z,29.10
2018-06-24T10:00:57.354Z,30.21
2018-06-24T10:03:26.269Z,26.44
2018-06-24T10:05:54.453Z,31.11
2018-06-24T10:08:22.737Z,27.22
2018-06-24T10:10:51.883Z,27.64
2018-06-24T10:13:20.591Z,27.51
2018-06-24T10:15:48.663Z,26.16
2018-06-24T10:18:16.882Z,22.86
2018-06-24T10:20:45.198Z,22.98
2018-06-24T10:23:13.399Z,22.83
2018-06-24T10:25:41.575Z,22.53
2018-06-24T10:28:09.730Z,23.79
2018-06-24T10:30:37.858Z,24.89
2018-06-24T10:33:05.938Z,25.19
2018-06-24T10:35:34.236Z,25.61
2018-06-24T10:38:02.455Z,25.62
2018-06-24T10:40:30.693Z,25.97
2018-06-24T10:42:58.958Z,25.32
2018-06-24T10:45:27.217Z,23.84
2018-06-24T10:47:55.468Z,22.96
2018-06-24T10:50:23.761Z,24.79
2018-06-24T10:52:51.905Z,23.69
2018-06-24T10:55:20.144Z,25.01
2018-06-24T10:57:48.355Z,22.40
2018-06-24T11:00:16.547Z,19.60
2018-06-24T11:02:44.695Z,19.61
2018-06-24T11:05:13.588Z,19.51
2018-06-24T11:07:41.754Z,23.13
2018-06-24T11:10:10.003Z,24.68
2018-06-24T11:12:38.264Z,24.30
2018-06-24T11:15:07.230Z,27.92
2018-06-24T11:17:35.539Z,24.61
2018-06-24T11:20:03.770Z,26.08
2018-06-24T11:22:31.999Z,25.42
2018-06-24T11:25:00.143Z,26.93
2018-06-24T11:27:28.357Z,23.93
2018-06-24T11:29:56.580Z,23.22
2018-06-24T11:32:24.738Z,19.77
2018-06-24T11:34:53.052Z,20.96
2018-06-24T11:37:21.680Z,25.39
2018-06-24T11:39:49.890Z,24.50
2018-06-24T11:42:18.346Z,23.89
2018-06-24T11:44:46.505Z,24.16
2018-06-24T11:47:15.654Z,22.58
2018-06-24T11:49:43.910Z,22.85
2018-06-24T11:52:12.220Z,21.89
2018-06-24T11:54:40.558Z,22.61
2018-06-24T11:57:21.021Z,23.09
2018-06-24T11:59:52.055Z,24.53
2018-06-24T12:02:20.388Z,24.39
2018-06-24T12:04:48.623Z,24.56
2018-06-24T12:07:17.819Z,25.11
2018-06-24T12:09:46.309Z,23.57
2018-06-24T12:12:15.380Z,24.49
2018-06-24T12:14:43.749Z,22.02
2018-06-24T12:17:12.133Z,20.71
2018-06-24T12:19:40.378Z,22.51
2018-06-24T12:22:08.605Z,25.08
2018-06-24T12:24:37.380Z,26.20
2018-06-24T12:27:05.619Z,26.90
2018-06-24T12:29:33.727Z,29.69
2018-06-24T12:32:01.938Z,28.87
2018-06-24T12:34:30.055Z,28.32
2018-06-24T12:36:58.300Z,29.16
2018-06-24T12:39:26.442Z,31.28
2018-06-24T12:41:54.719Z,30.82
2018-06-24T12:44:23.267Z,29.60
2018-06-24T12:46:51.509Z,31.72
2018-06-24T12:49:19.706Z,30.19
2018-06-24T12:51:48.118Z,30.68
2018-06-24T12:54:17.026Z,31.17
2018-06-24T12:56:45.272Z,30.71
2018-06-24T12:59:13.792Z,31.55
2018-06-24T13:01:41.879Z,30.05
2018-06-24T13:04:10.097Z,28.81
2018-06-24T13:06:38.285Z,28.49
2018-06-24T13:09:09.127Z,28.93
2018-06-24T13:11:37.480Z,29.47
2018-06-24T13:14:05.914Z,28.58
2018-06-24T13:16:34.153Z,30.97
2018-06-24T13:19:02.399Z,29.46
2018-06-24T13:21:30.528Z,28.78
2018-06-24T13:23:58.868Z,29.47
2018-06-24T13:26:27.278Z,30.54
2018-06-24T13:28:55.537Z,31.63
2018-06-24T13:31:24.623Z,31.99
2018-06-24T13:33:52.890Z,31.70
2018-06-24T13:36:21.317Z,34.38
2018-06-24T13:38:49.543Z,35.28
2018-06-24T13:41:17.717Z,35.34
2018-06-24T13:43:45.978Z,34.96
2018-06-24T13:46:14.192Z,32.41
2018-06-24T13:48:42.572Z,35.16
2018-06-24T13:51:17.498Z,35.61
2018-06-24T13:53:45.734Z,36.04
2018-06-24T13:56:13.901Z,36.34
2018-06-24T13:58:42.214Z,33.64
2018-06-24T14:01:10.649Z,34.23
2018-06-24T14:03:38.898Z,34.74
2018-06-24T14:06:07.301Z,34.55
2018-06-24T14:08:35.540Z,35.25
2018-06-24T14:11:04.067Z,33.14
2018-06-24T14:13:32.240Z,35.87
2018-06-24T14:16:00.487Z,32.22
2018-06-24T14:18:28.833Z,34.47
2018-06-24T14:20:57.387Z,34.09
2018-06-24T14:23:25.893Z,33.58
2018-06-24T14:25:54.061Z,34.82
2018-06-24T14:28:22.330Z,33.87
2018-06-24T14:30:50.682Z,30.92
2018-06-24T14:33:18.948Z,33.41
2018-06-24T14:35:47.288Z,35.97
2018-06-24T14:38:15.757Z,34.06
2018-06-24T14:40:44.075Z,34.62
2018-06-24T14:43:12.333Z,35.30
2018-06-24T14:45:40.675Z,34.02
2018-06-24T14:48:09.049Z,37.04
2018-06-24T14:50:37.447Z,35.80
2018-06-24T14:53:05.819Z,34.15
2018-06-24T14:55:34.226Z,36.95
2018-06-24T14:58:02.505Z,35.94
2018-06-24T15:00:30.864Z,31.91
2018-06-24T15:02:59.321Z,34.89
2018-06-24T15:05:27.619Z,35.93
2018-06-24T15:07:55.879Z,37.51
2018-06-24T15:10:24.784Z,38.94
2018-06-24T15:13:02.204Z,35.17
2018-06-24T15:15:30.564Z,39.37
2018-06-24T15:17:58.997Z,34.84
2018-06-24T15:20:27.365Z,34.67
2018-06-24T15:22:56.566Z,34.24
2018-06-24T15:25:24.945Z,34.09
2018-06-24T15:27:53.778Z,36.08
2018-06-24T15:30:22.054Z,36.86
2018-06-24T15:32:50.384Z,34.60
2018-06-24T15:35:18.763Z,37.50
2018-06-24T15:37:47.056Z,40.07
2018-06-24T15:40:15.375Z,39.12
2018-06-24T15:42:43.884Z,38.65
2018-06-24T15:45:12.094Z,41.53
2018-06-24T15:47:40.336Z,40.33
2018-06-24T15:50:08.644Z,37.58
2018-06-24T15:52:37.185Z,39.77
2018-06-24T15:55:06.092Z,39.89
2018-06-24T15:57:34.391Z,41.34
2018-06-24T16:00:03.020Z,39.03
2018-06-24T16:02:31.370Z,40.83
2018-06-24T16:05:00.019Z,39.91
2018-06-24T16:07:28.244Z,41.36
2018-06-24T16:09:56.976Z,40.88
2018-06-24T16:12:26.106Z,40.93
2018-06-24T16:14:54.449Z,41.40
2018-06-24T16:17:23.048Z,40.70
2018-06-24T16:19:51.401Z,41.89
2018-06-24T16:22:19.728Z,41.72
2018-06-24T16:24:48.402Z,41.66
2018-06-24T16:27:16.897Z,41.83
2018-06-24T16:29:45.149Z,40.92
2018-06-24T16:32:13.547Z,41.17
2018-06-24T16:34:41.948Z,38.80
2018-06-24T16:37:10.229Z,39.79
2018-06-24T16:39:38.487Z,38.59
2018-06-24T16:42:07.027Z,40.10
2018-06-24T16:44:35.453Z,39.62
2018-06-24T16:47:03.765Z,41.25
2018-06-24T16:49:32.206Z,41.01
2018-06-24T16:52:00.470Z,43.26
2018-06-24T16:54:28.729Z,44.70
2018-06-24T16:56:57.043Z,46.22
2018-06-24T16:59:25.764Z,46.08
2018-06-24T17:01:53.755Z,49.71
2018-06-24T17:04:22.073Z,47.00
2018-06-24T17:06:50.343Z,44.21
2018-06-24T17:09:18.567Z,45.64
2018-06-24T17:11:46.963Z,44.63
2018-06-24T17:14:15.391Z,43.53
2018-06-24T17:16:43.958Z,44.23
2018-06-24T17:19:12.441Z,43.03
2018-06-24T17:21:40.894Z,43.51
2018-06-24T17:24:09.276Z,45.35
2018-06-24T17:26:37.674Z,45.06
2018-06-24T17:29:06.012Z,46.58
2018-06-24T17:31:34.250Z,45.92
2018-06-24T17:34:02.399Z,46.23
2018-06-24T17:36:30.679Z,44.91
2018-06-24T17:38:59.079Z,46.42
2018-06-24T17:41:27.474Z,48.37
2018-06-24T17:43:55.863Z,49.30
2018-06-24T17:46:24.160Z,49.86
2018-06-24T17:48:52.441Z,49.72
2018-06-24T17:51:20.682Z,50.36
2018-06-24T17:53:49.028Z,50.46
2018-06-24T17:56:17.269Z,51.71
2018-06-24T17:58:46.161Z,52.23
2018-06-24T18:01:14.401Z,53.01
2018-06-24T18:03:42.789Z,52.39
2018-06-24T18:06:11.225Z,52.95
2018-06-24T18:08:39.578Z,53.74
2018-06-24T18:11:08.692Z,54.03
2018-06-24T18:13:36.914Z,55.73
2018-06-24T18:16:05.186Z,57.21
2018-06-24T18:18:33.452Z,58.05
2018-06-24T18:21:01.671Z,58.22
2018-06-24T18:23:29.839Z,51.12
2018-06-24T18:25:58.157Z,52.15
2018-06-24T18:28:26.491Z,57.27
2018-06-24T18:30:54.689Z,58.37
2018-06-24T18:33:22.824Z,58.49
2018-06-24T18:35:51.143Z,59.46
2018-06-24T18:38:22.152Z,59.36
2018-06-24T18:40:50.337Z,59.61
2018-06-24T18:43:18.458Z,58.94
2018-06-24T18:45:46.615Z,59.12
2018-06-24T18:48:14.763Z,58.96
2018-06-24T18:50:42.886Z,58.98
2018-06-24T18:53:11.119Z,59.73
2018-06-24T18:55:39.305Z,60.33
2018-06-24T18:58:07.691Z,60.44
2018-06-24T19:00:35.776Z,61.37
2018-06-24T19:03:04.203Z,61.42
2018-06-24T19:05:32.178Z,61.42
2018-06-24T19:08:00.321Z,62.14
2018-06-24T19:10:28.529Z,61.82
2018-06-24T19:12:56.676Z,62.62
2018-06-24T19:15:25.364Z,62.05
2018-06-24T19:17:53.543Z,61.46
2018-06-24T19:20:22.050Z,61.95
2018-06-24T19:22:50.225Z,62.39
2018-06-24T19:25:18.707Z,62.76
2018-06-24T19:27:46.863Z,62.19
2018-06-24T19:30:14.995Z,62.29
2018-06-24T19:32:43.101Z,63.12
2018-06-24T19:35:11.252Z,63.38
2018-06-24T19:37:39.395Z,62.72
2018-06-24T19:40:08.133Z,62.05
2018-06-24T19:42:36.269Z,63.08
2018-06-24T19:45:04.542Z,63.88
2018-06-24T19:47:32.721Z,63.74
2018-06-24T19:50:00.991Z,63.20
2018-06-24T19:52:29.020Z,63.28
2018-06-24T19:54:57.170Z,63.28
2018-06-24T19:57:25.304Z,63.83
2018-06-24T19:59:53.474Z,65.07
2018-06-24T20:02:22.386Z,61.80
2018-06-24T20:04:50.591Z,65.01
2018-06-24T20:07:18.898Z,66.21
2018-06-24T20:09:47.583Z,67.44
2018-06-24T20:12:15.825Z,67.07
2018-06-24T20:14:43.882Z,67.46
2018-06-24T20:17:11.974Z,67.39
2018-06-24T20:19:40.094Z,68.29
2018-06-24T20:22:08.225Z,67.53
2018-06-24T20:24:36.468Z,68.32
2018-06-24T20:27:05.369Z,69.75
2018-06-24T20:29:33.654Z,69.87
2018-06-24T20:32:01.945Z,69.62
2018-06-24T20:34:30.156Z,70.39
2018-06-24T20:36:59.066Z,71.10
2018-06-24T20:39:27.363Z,70.00
2018-06-24T20:41:55.600Z,70.74
2018-06-24T20:44:24.098Z,71.05
2018-06-24T20:46:52.256Z,71.17
2018-06-24T20:49:20.455Z,71.84
2018-06-24T20:51:48.709Z,72.19
2018-06-24T20:54:16.930Z,72.85
2018-06-24T20:56:45.275Z,72.99
2018-06-24T20:59:13.503Z,72.31
2018-06-24T21:01:41.722Z,72.69
2018-06-24T21:04:09.989Z,72.53
2018-06-24T21:06:38.231Z,72.92
2018-06-24T21:09:08.158Z,71.72
2018-06-24T21:11:36.385Z,71.43
2018-06-24T21:14:04.575Z,71.96
2018-06-24T21:16:32.755Z,72.37
2018-06-24T21:19:01.024Z,73.23
2018-06-24T21:21:29.428Z,72.42
2018-06-24T21:23:57.670Z,73.54
2018-06-24T21:26:25.875Z,73.79
2018-06-24T21:28:54.002Z,73.47
2018-06-24T21:31:22.257Z,73.79
2018-06-24T21:33:50.519Z,74.76
2018-06-24T21:36:18.649Z,74.14
2018-06-24T21:38:47.413Z,73.76
2018-06-24T21:41:15.630Z,73.41
2018-06-24T21:43:43.891Z,74.83
2018-06-24T21:46:12.077Z,73.94
2018-06-24T21:48:40.277Z,73.69
2018-06-24T21:51:08.523Z,74.64
2018-06-24T21:53:36.875Z,73.88
2018-06-24T21:56:05.116Z,73.92
2018-06-24T21:58:33.437Z,74.29
2018-06-24T22:01:01.753Z,74.02
2018-06-24T22:03:29.922Z,74.95
2018-06-24T22:05:58.225Z,74.19
2018-06-24T22:08:26.380Z,75.04
2018-06-24T22:10:54.679Z,74.44
2018-06-24T22:13:22.926Z,74.80
2018-06-24T22:15:51.808Z,74.04
2018-06-24T22:18:20.042Z,74.40
2018-06-24T22:20:48.254Z,74.74
2018-06-24T22:23:16.445Z,73.53
2018-06-24T22:25:44.864Z,76.14
2018-06-24T22:28:12.971Z,75.90
2018-06-24T22:30:41.262Z,76.06
2018-06-24T22:33:10.270Z,76.17
2018-06-24T22:35:38.493Z,76.72
2018-06-24T22:38:06.984Z,77.08
2018-06-24T22:40:35.168Z,77.01
2018-06-24T22:43:03.257Z,77.25
2018-06-24T22:45:31.536Z,78.01
2018-06-24T22:47:59.747Z,76.82
2018-06-24T22:50:27.999Z,78.00
2018-06-24T22:52:56.409Z,77.01
2018-06-24T22:55:24.543Z,77.21
2018-06-24T22:57:52.697Z,77.42
2018-06-24T23:00:20.837Z,77.28
2018-06-24T23:02:49.060Z,77.97
2018-06-24T23:05:17.299Z,77.94
2018-06-24T23:07:45.528Z,77.70
2018-06-24T23:10:14.106Z,77.52
2018-06-24T23:12:42.370Z,77.97
2018-06-24T23:15:10.996Z,78.16
2018-06-24T23:17:39.342Z,76.92
2018-06-24T23:20:08.288Z,77.90
2018-06-24T23:22:36.661Z,77.25
2018-06-24T23:25:05.237Z,77.87
2018-06-24T23:27:33.329Z,77.66
2018-06-24T23:30:01.427Z,77.46
2018-06-24T23:32:29.582Z,77.97
2018-06-24T23:34:57.791Z,77.54
2018-06-24T23:37:25.967Z,77.86
2018-06-24T23:39:54.183Z,77.50
2018-06-24T23:42:22.311Z,77.40
2018-06-24T23:44:50.442Z,76.93
2018-06-24T23:47:18.675Z,77.77
2018-06-24T23:49:46.794Z,77.41
2018-06-24T23:52:15.519Z,78.08
2018-06-24T23:54:43.618Z,78.21
2018-06-24T23:57:11.837Z,77.79
2018-06-24T23:59:39.927Z,77.97
